Wednesday, April 01, 2015
01:05 UTC
  |  Log In   |  Register Free
Airport Search:

Greater Portsmouth Regional Airport
(KPMH)

Greater Portsmouth Regional Airport Diagram
No Airport Diagram Available

FAA data valid effective March 05, 2015 - April 30, 2015 (unless otherwise noted).

 
 
 
 
 
 
 
 
 
 
 
 
 
 

Current Aviation Weather for Greater Portsmouth Regional Airport (KPMH)

METAR data is unavailable for PMH. The nearest METAR location is at KDWU (17.9 nm SE from PMH).

The most recent METAR observation for KDWU was updated at: 0014
METAR Summary (Translated METAR)
KDWU
312355Z AUTO 03007G21KT 330V030 10SM CLR 14/04 A2987 RMK AO1 WSHFT 54 10220 20140 402300010 52047
(17.9 nm SE from KPMH)
KHTS
312351Z 36008G23KT 10SM CLR 14/03 A2985 RMK AO2 PK WND 33028/2254 PRESRR SLP108 T01440033 10239 20144 53039
(31.5 nm SE from KPMH)
TAF Summary (Translated TAF)
KHTS
010014Z 0100/0124 34009G20KT P6SM SKC FM010200 34006KT P6SM SKC FM010500 00000KT P6SM SKC FM011600 18005KT P6SM SKC
  Airport Weather Conditions for KPMH

Current weather conditions are
not available for PMH


The nearest NOAA weather station
is at DWU, (17.9 nm SE from PMH)
  
 Current Weather at DWU
57° F
Fair
North winds at 9.2 mph
DWU NOAA Radar

Pressure: 29.84 in
Humidity: 51%
Wind: from the North at 9.2 gusting to 21.9 MPH (8 gusting to 19 KT)
Dew Point: 39.2°F
Visibility: 10.00 mi


Airport Weather Forecast for KPMH

Translated METAR and TAF for KHTS
Translated METAR for KHTS (0104 UTC 01 April 2015)
found at http://aviationweather.gov/adds/metars/
 
METAR text: KHTS 010051Z 36011KT 10SM CLR 11/03 A2991 RMK AO2 PRESRR SLP129 T01110033
Conditions at: KHTS (HUNTINGTON , WV, US) observed 0051 UTC 01 April 2015
Temperature: 11.1°C (52°F)
Dewpoint: 3.3°C (38°F) [RH = 59%]
Pressure (altimeter): 29.91 inches Hg (1013.0 mb)
[Sea-level pressure: 1012.9 mb]
Winds: from the N (360 degrees) at 13 MPH (11 knots; 5.7 m/s)
Visibility: 10 or more miles (16+ km)
Ceiling: at least 12,000 feet AGL
Clouds: sky clear below 12,000 feet AGL
Weather: no significant weather observed at this time
Translated TAF for KHTS
Forecast for: KHTS (HUNTINGTON , WV, US)
TAF Text: KHTS 010014Z 0100/0124 34009G20KT P6SM SKC
Forecast period: 0000 to 0200 UTC 01 April 2015
Forecast type: FROM: standard forecast or significant change
Winds: from the NNW (340 degrees) at 10 MPH (9 knots; 4.7 m/s)
gusting to 23 MPH (20 knots; 10.4 m/s)
Visibility: 6 or more miles (10+ km)
Clouds: clear skies
Weather: no significant weather forecast for this period
TAF Text: FM010200 34006KT P6SM SKC
Forecast period: 0200 to 0500 UTC 01 April 2015
Forecast type: FROM: standard forecast or significant change
Winds: from the NNW (340 degrees) at 7 MPH (6 knots; 3.1 m/s)
Visibility: 6 or more miles (10+ km)
Clouds: clear skies
Weather: no significant weather forecast for this period
TAF Text: FM010500 00000KT P6SM SKC
Forecast period: 0500 to 1600 UTC 01 April 2015
Forecast type: FROM: standard forecast or significant change
Winds: calm
Visibility: 6 or more miles (10+ km)
Clouds: clear skies
Weather: no significant weather forecast for this period
TAF Text: FM011600 18005KT P6SM SKC
Forecast period: 1600 UTC 01 April 2015 to 0000 UTC 02 April 2015
Forecast type: FROM: standard forecast or significant change
Winds: from the S (180 degrees) at 6 MPH (5 knots; 2.6 m/s)
Visibility: 6 or more miles (10+ km)
Clouds: clear skies
Weather: no significant weather forecast for this period

Find All Airport Services Find A Hotel Find A Rental Car Find A Golf Course Find A Restaurant $100 Hamburger



FBO's on the Field
FBO Company Facility Photos Services Transportation Aviation Fuel Prices: Prices include tax
Catering Weather Repair Courtesy Rental Type 100LL JetA JetA+ MOGAS 8087
 
Chasteen Aviation, Inc.

This FBO has not yet been rated
FS:Phillips 66
Last Updated: Mar-03
Login to update fuel prices
SS:
Contact Chasteen Aviation, Inc.More FBO Information
 
Add another FBO Facility Photos Catering Weather Repair Courtesy Rental Type 100LL JetA JetA+ MOGAS 8087
Services Transportation Aviation Fuel Prices: Prices include tax


model-print
model-print
model-print
model-print